Time;durP1;ratioP1;P1;durP2;ratioP2;P2;SDS_P1;SDS_P2;PMS_P1;PMS_P2;Temp;Humidity;BMP_temperature;BMP_pressure;BME280_temperature;BME280_humidity;BME280_pressure;Samples;Min_cycle;Max_cycle;Signal;HPM_P1;HPM_P2
2021/10/18 00:00:11;;;;;;;4.53;2.95;;;;;;;;;;5075226;28;20048;-64
2021/10/18 00:02:37;;;;;;;11.13;3.13;;;;;;;;;;5075449;28;20036;-64
2021/10/18 00:05:04;;;;;;;4.10;2.90;;;;;;;;;;5075758;28;20020;-64
2021/10/18 00:07:30;;;;;;;7.43;3.03;;;;;;;;;;5073802;28;20068;-64
2021/10/18 00:09:56;;;;;;;4.53;3.05;;;;;;;;;;5074912;28;20055;-64
2021/10/18 00:12:22;;;;;;;9.30;3.20;;;;;;;;;;5075014;28;20434;-64
2021/10/18 00:14:48;;;;;;;5.20;3.25;;;;;;;;;;5075035;28;20028;-64
2021/10/18 00:17:14;;;;;;;9.00;3.13;;;;;;;;;;5075003;28;20032;-64
2021/10/18 00:19:40;;;;;;;6.80;3.20;;;;;;;;;;5074540;28;20081;-64
2021/10/18 00:22:06;;;;;;;8.48;3.05;;;;;;;;;;5074646;28;20025;-63
2021/10/18 00:24:32;;;;;;;3.60;2.58;;;;;;;;;;5073475;28;20082;-64
2021/10/18 00:26:58;;;;;;;9.63;3.20;;;;;;;;;;5075041;28;20368;-64
2021/10/18 00:29:23;;;;;;;7.03;3.13;;;;;;;;;;5074788;28;20055;-64
2021/10/18 00:31:49;;;;;;;5.90;3.03;;;;;;;;;;5074778;28;20033;-64
2021/10/18 00:34:15;;;;;;;8.05;3.40;;;;;;;;;;5074804;28;20025;-64
2021/10/18 00:36:41;;;;;;;5.75;3.20;;;;;;;;;;5074303;28;20039;-63
2021/10/18 00:39:07;;;;;;;4.93;2.97;;;;;;;;;;5074487;28;20028;-64
2021/10/18 00:41:33;;;;;;;4.13;2.85;;;;;;;;;;5075168;28;20059;-64
2021/10/18 00:43:59;;;;;;;8.75;2.83;;;;;;;;;;5074697;28;20032;-64
2021/10/18 00:46:25;;;;;;;4.95;3.08;;;;;;;;;;5074486;28;20451;-64
2021/10/18 00:48:53;;;;;;;4.55;3.00;;;;;;;;;;5074877;28;20262;-64
2021/10/18 00:51:21;;;;;;;5.28;3.08;;;;;;;;;;5073991;28;20078;-64
2021/10/18 00:53:47;;;;;;;7.10;3.17;;;;;;;;;;5074640;28;20024;-63
2021/10/18 00:56:14;;;;;;;3.95;2.58;;;;;;;;;;5074907;28;20048;-63
2021/10/18 00:58:40;;;;;;;6.53;3.20;;;;;;;;;;5073608;28;20060;-64
2021/10/18 01:01:07;;;;;;;4.15;3.20;;;;;;;;;;5074161;28;20044;-64
2021/10/18 01:03:33;;;;;;;4.30;2.65;;;;;;;;;;5074064;28;20040;-64
2021/10/18 01:05:59;;;;;;;3.88;2.72;;;;;;;;;;5073738;28;20070;-64
2021/10/18 01:08:25;;;;;;;5.57;2.90;;;;;;;;;;5074167;28;20029;-63
2021/10/18 01:10:51;;;;;;;6.80;3.08;;;;;;;;;;5056514;28;20098;-63
2021/10/18 01:13:17;;;;;;;5.63;3.30;;;;;;;;;;5073777;28;20032;-64
2021/10/18 01:15:44;;;;;;;3.45;3.00;;;;;;;;;;5072621;28;20135;-64
2021/10/18 01:18:10;;;;;;;8.13;3.00;;;;;;;;;;5073738;28;20029;-64
2021/10/18 01:20:37;;;;;;;13.07;3.40;;;;;;;;;;5073427;28;20051;-63
2021/10/18 01:23:03;;;;;;;11.15;3.13;;;;;;;;;;5056041;28;20047;-64
2021/10/18 01:25:30;;;;;;;11.00;3.22;;;;;;;;;;5073962;28;20418;-63
2021/10/18 01:27:56;;;;;;;8.30;2.90;;;;;;;;;;5073716;28;20103;-63
2021/10/18 01:30:22;;;;;;;4.72;2.97;;;;;;;;;;5073583;28;20097;-63
2021/10/18 01:32:49;;;;;;;5.43;2.80;;;;;;;;;;5074117;28;20032;-63
2021/10/18 01:35:15;;;;;;;4.53;2.70;;;;;;;;;;5073396;28;20031;-64
2021/10/18 01:37:41;;;;;;;5.78;3.20;;;;;;;;;;5072948;28;20028;-64
2021/10/18 01:40:08;;;;;;;4.70;3.13;;;;;;;;;;5072975;28;20160;-64
2021/10/18 01:42:34;;;;;;;10.73;3.30;;;;;;;;;;5073092;28;20106;-63
2021/10/18 01:45:00;;;;;;;7.18;3.20;;;;;;;;;;5072069;28;20028;-63
2021/10/18 01:47:27;;;;;;;6.93;3.45;;;;;;;;;;5073033;28;20016;-64
2021/10/18 01:49:54;;;;;;;5.80;3.30;;;;;;;;;;5073151;28;20020;-64
2021/10/18 01:52:21;;;;;;;5.53;3.38;;;;;;;;;;5073680;28;20044;-63
2021/10/18 01:54:47;;;;;;;8.50;3.50;;;;;;;;;;5073518;28;20468;-63
2021/10/18 01:57:13;;;;;;;5.75;3.22;;;;;;;;;;5073138;28;20032;-64
2021/10/18 01:59:39;;;;;;;7.07;3.58;;;;;;;;;;5072621;28;20060;-64
2021/10/18 02:02:05;;;;;;;3.10;2.80;;;;;;;;;;5072814;28;20044;-63
2021/10/18 02:04:31;;;;;;;5.30;3.50;;;;;;;;;;5073233;28;20583;-64
2021/10/18 02:06:57;;;;;;;7.75;3.25;;;;;;;;;;5072525;28;20119;-64
2021/10/18 02:09:24;;;;;;;8.68;3.05;;;;;;;;;;5073630;28;20100;-63
2021/10/18 02:11:50;;;;;;;6.80;3.17;;;;;;;;;;5073137;28;20029;-64
2021/10/18 02:14:16;;;;;;;6.32;3.05;;;;;;;;;;5053942;28;20709;-64
2021/10/18 02:16:42;;;;;;;4.30;2.97;;;;;;;;;;5072937;28;20245;-64
2021/10/18 02:19:08;;;;;;;5.50;2.83;;;;;;;;;;5072418;28;20029;-64
2021/10/18 02:21:34;;;;;;;6.07;3.30;;;;;;;;;;5073086;28;20101;-64
2021/10/18 02:24:00;;;;;;;7.45;3.30;;;;;;;;;;5072445;28;20033;-63
2021/10/18 02:26:26;;;;;;;4.68;3.08;;;;;;;;;;5073103;28;20028;-64
2021/10/18 02:28:52;;;;;;;10.48;3.33;;;;;;;;;;5072273;28;20068;-63
2021/10/18 02:31:18;;;;;;;9.63;3.50;;;;;;;;;;5073238;28;20031;-64
2021/10/18 02:33:44;;;;;;;7.18;3.20;;;;;;;;;;5071469;28;20024;-64
2021/10/18 02:36:10;;;;;;;20.27;3.38;;;;;;;;;;5072831;28;20442;-64
2021/10/18 02:38:38;;;;;;;7.65;3.50;;;;;;;;;;5072310;28;20079;-63
2021/10/18 02:41:04;;;;;;;35.47;4.20;;;;;;;;;;5072947;28;20028;-64
2021/10/18 02:43:30;;;;;;;33.03;4.05;;;;;;;;;;5075376;28;20037;-64
2021/10/18 02:45:56;;;;;;;37.92;4.10;;;;;;;;;;5077046;28;20028;-63
2021/10/18 02:48:22;;;;;;;13.60;3.75;;;;;;;;;;5057955;28;20074;-63
2021/10/18 02:50:48;;;;;;;11.90;3.38;;;;;;;;;;5076763;28;20044;-63
2021/10/18 02:53:14;;;;;;;9.70;3.72;;;;;;;;;;5075135;28;20021;-64
2021/10/18 02:55:41;;;;;;;21.08;3.88;;;;;;;;;;5076865;28;20537;-64
2021/10/18 02:58:07;;;;;;;14.40;4.30;;;;;;;;;;5066342;28;20029;-64
2021/10/18 03:00:33;;;;;;;27.27;4.25;;;;;;;;;;5038096;28;20068;-64
2021/10/18 03:02:58;;;;;;;11.80;3.75;;;;;;;;;;5055736;28;20116;-64
2021/10/18 03:05:24;;;;;;;9.25;3.58;;;;;;;;;;5056429;28;20017;-64
2021/10/18 03:07:52;;;;;;;9.80;3.28;;;;;;;;;;5063090;28;20029;-64
2021/10/18 03:10:18;;;;;;;11.38;3.88;;;;;;;;;;5076252;28;20054;-64
2021/10/18 03:12:44;;;;;;;21.42;4.07;;;;;;;;;;5074858;28;20028;-64
2021/10/18 03:15:11;;;;;;;12.48;3.55;;;;;;;;;;5075733;28;20029;-64
2021/10/18 03:17:37;;;;;;;10.90;3.72;;;;;;;;;;5074628;28;20032;-64
2021/10/18 03:20:03;;;;;;;9.82;3.50;;;;;;;;;;5075517;28;20024;-64
2021/10/18 03:22:29;;;;;;;5.55;3.22;;;;;;;;;;5074773;28;20107;-65
2021/10/18 03:24:56;;;;;;;12.50;3.13;;;;;;;;;;5075267;28;20028;-64
2021/10/18 03:27:22;;;;;;;16.27;3.97;;;;;;;;;;5074734;28;20036;-64
2021/10/18 03:29:51;;;;;;;5.38;3.38;;;;;;;;;;5075898;28;20020;-63
2021/10/18 03:32:17;;;;;;;13.05;3.92;;;;;;;;;;5074393;28;20107;-63
2021/10/18 03:34:43;;;;;;;10.40;3.45;;;;;;;;;;5075682;28;20111;-64
2021/10/18 03:37:09;;;;;;;12.25;3.45;;;;;;;;;;5074421;28;20106;-64
2021/10/18 03:39:35;;;;;;;4.93;3.35;;;;;;;;;;5075282;28;20028;-64
2021/10/18 03:42:01;;;;;;;7.50;3.65;;;;;;;;;;5073506;28;20032;-64
2021/10/18 03:44:27;;;;;;;10.15;3.60;;;;;;;;;;5074545;28;20045;-63
2021/10/18 03:46:53;;;;;;;13.35;3.42;;;;;;;;;;5074520;28;20016;-64
2021/10/18 03:49:20;;;;;;;11.68;3.83;;;;;;;;;;5074527;28;20043;-63
2021/10/18 03:51:46;;;;;;;8.82;3.40;;;;;;;;;;5074852;28;20029;-63
2021/10/18 03:54:12;;;;;;;16.27;4.03;;;;;;;;;;5073419;28;20079;-63
2021/10/18 03:56:38;;;;;;;5.75;3.50;;;;;;;;;;5074865;28;20078;-63
2021/10/18 03:59:03;;;;;;;9.10;3.70;;;;;;;;;;5056228;28;20055;-63
2021/10/18 04:01:29;;;;;;;16.38;3.67;;;;;;;;;;5074236;28;20143;-63
2021/10/18 04:03:55;;;;;;;9.77;3.42;;;;;;;;;;5073930;28;20035;-63
2021/10/18 04:06:21;;;;;;;6.22;3.67;;;;;;;;;;5074872;28;20036;-63
2021/10/18 04:08:49;;;;;;;9.35;3.88;;;;;;;;;;5074098;28;20025;-63
2021/10/18 04:11:16;;;;;;;5.78;3.40;;;;;;;;;;5075336;28;20033;-64
2021/10/18 04:13:42;;;;;;;6.63;3.25;;;;;;;;;;5074189;28;20037;-64
2021/10/18 04:16:08;;;;;;;6.22;3.35;;;;;;;;;;5075002;28;20043;-64
2021/10/18 04:18:34;;;;;;;5.93;3.53;;;;;;;;;;5060550;28;20021;-64
2021/10/18 04:21:00;;;;;;;3.83;3.22;;;;;;;;;;5055066;28;20025;-63
2021/10/18 04:23:29;;;;;;;10.55;3.55;;;;;;;;;;5054441;28;20037;-64
2021/10/18 04:25:55;;;;;;;4.97;3.47;;;;;;;;;;5055101;28;20377;-63
2021/10/18 04:28:21;;;;;;;4.13;2.97;;;;;;;;;;5066940;28;20035;-63
2021/10/18 04:30:47;;;;;;;4.60;3.40;;;;;;;;;;5074658;28;20029;-63
2021/10/18 04:33:13;;;;;;;8.63;3.08;;;;;;;;;;5073826;28;20058;-63
2021/10/18 04:35:39;;;;;;;7.03;3.42;;;;;;;;;;5074517;28;20053;-63
2021/10/18 04:38:05;;;;;;;5.72;3.22;;;;;;;;;;5073587;28;20032;-64
2021/10/18 04:40:31;;;;;;;8.48;3.80;;;;;;;;;;5056796;28;20032;-64
2021/10/18 04:42:57;;;;;;;7.18;3.45;;;;;;;;;;5071828;28;20037;-63
2021/10/18 04:45:23;;;;;;;11.85;3.78;;;;;;;;;;5074409;28;20035;-64
2021/10/18 04:47:51;;;;;;;7.05;3.63;;;;;;;;;;5073647;28;20048;-63
2021/10/18 04:50:21;;;;;;;6.32;3.60;;;;;;;;;;5074797;28;20025;-63
2021/10/18 04:52:48;;;;;;;6.22;3.60;;;;;;;;;;5073289;28;20029;-63
2021/10/18 04:55:14;;;;;;;11.52;4.15;;;;;;;;;;5074171;28;20423;-64
2021/10/18 04:58:09;;;;;;;6.38;3.70;;;;;;;;;;5073240;28;20031;-63
2021/10/18 05:00:41;;;;;;;6.40;3.33;;;;;;;;;;5061017;28;20119;-63
2021/10/18 05:03:07;;;;;;;9.07;3.80;;;;;;;;;;5071676;28;20029;-64
2021/10/18 05:05:35;;;;;;;5.40;3.90;;;;;;;;;;5073470;28;20032;-64
2021/10/18 05:08:05;;;;;;;7.88;4.10;;;;;;;;;;5073369;28;20016;-64
2021/10/18 05:10:31;;;;;;;6.00;3.50;;;;;;;;;;5073941;28;20146;-64
2021/10/18 05:12:57;;;;;;;7.07;4.07;;;;;;;;;;5072642;28;20025;-63
2021/10/18 05:15:23;;;;;;;11.23;4.03;;;;;;;;;;5074564;28;20077;-63
2021/10/18 05:17:49;;;;;;;5.15;3.90;;;;;;;;;;5065860;28;20025;-64
2021/10/18 05:20:15;;;;;;;7.53;3.75;;;;;;;;;;5054578;28;20029;-64
2021/10/18 05:22:41;;;;;;;7.53;3.90;;;;;;;;;;5059113;28;20040;-63
2021/10/18 05:25:08;;;;;;;7.95;4.05;;;;;;;;;;5073418;28;20028;-64
2021/10/18 05:27:34;;;;;;;6.30;4.07;;;;;;;;;;5054648;28;20411;-64
2021/10/18 05:30:00;;;;;;;6.80;3.88;;;;;;;;;;5073360;28;20483;-64
2021/10/18 05:32:26;;;;;;;11.30;4.30;;;;;;;;;;5072668;28;20041;-64
2021/10/18 05:34:52;;;;;;;8.80;4.38;;;;;;;;;;5073531;28;20024;-63
2021/10/18 05:37:18;;;;;;;11.88;4.25;;;;;;;;;;5055161;28;20029;-63
2021/10/18 05:39:44;;;;;;;10.55;3.85;;;;;;;;;;5073553;28;20021;-63
2021/10/18 05:42:10;;;;;;;25.25;4.35;;;;;;;;;;5072914;28;20176;-63
2021/10/18 05:44:36;;;;;;;11.38;4.50;;;;;;;;;;5073578;28;20502;-63
2021/10/18 05:47:03;;;;;;;17.35;4.65;;;;;;;;;;5072251;28;20025;-64
2021/10/18 05:49:29;;;;;;;11.50;5.10;;;;;;;;;;5073254;28;20041;-64
2021/10/18 05:51:55;;;;;;;9.65;5.25;;;;;;;;;;5072208;28;20051;-64
2021/10/18 05:54:21;;;;;;;7.22;4.85;;;;;;;;;;5062676;28;20020;-64
2021/10/18 05:56:49;;;;;;;14.23;5.60;;;;;;;;;;5073335;28;20031;-64
2021/10/18 05:59:15;;;;;;;20.02;5.40;;;;;;;;;;5072334;28;20033;-63
2021/10/18 06:01:41;;;;;;;17.10;5.32;;;;;;;;;;5072468;28;20064;-65
2021/10/18 06:04:07;;;;;;;13.32;5.80;;;;;;;;;;5071487;28;20029;-62
2021/10/18 06:06:35;;;;;;;14.05;5.30;;;;;;;;;;5072222;28;20107;-63
2021/10/18 06:09:01;;;;;;;38.53;6.75;;;;;;;;;;5068405;28;20023;-63
2021/10/18 06:11:27;;;;;;;20.90;5.68;;;;;;;;;;5072792;28;20124;-63
2021/10/18 06:13:53;;;;;;;35.97;6.07;;;;;;;;;;5071585;28;20040;-63
2021/10/18 06:16:19;;;;;;;44.85;5.80;;;;;;;;;;5071370;28;20104;-63
2021/10/18 06:18:45;;;;;;;23.48;6.32;;;;;;;;;;5071184;28;20166;-63
2021/10/18 06:21:11;;;;;;;26.88;6.78;;;;;;;;;;5072431;28;20104;-63
2021/10/18 06:23:37;;;;;;;62.90;8.32;;;;;;;;;;5070973;28;20414;-63
2021/10/18 06:26:03;;;;;;;39.05;6.70;;;;;;;;;;5072134;28;20029;-64
2021/10/18 06:28:29;;;;;;;63.88;8.05;;;;;;;;;;5063910;28;20025;-63
2021/10/18 06:30:55;;;;;;;63.97;7.68;;;;;;;;;;5072444;28;20048;-69
2021/10/18 06:33:24;;;;;;;46.58;9.75;;;;;;;;;;5071884;28;20039;-63
2021/10/18 06:35:50;;;;;;;87.30;10.57;;;;;;;;;;5054899;28;20027;-67
2021/10/18 06:38:19;;;;;;;61.63;9.43;;;;;;;;;;5071643;28;20141;-67
2021/10/18 06:40:46;;;;;;;90.10;9.90;;;;;;;;;;5071894;28;20029;-64
2021/10/18 06:43:13;;;;;;;101.00;9.65;;;;;;;;;;5071724;28;20051;-63
2021/10/18 06:45:39;;;;;;;40.83;7.90;;;;;;;;;;5072805;28;20020;-65
2021/10/18 06:48:07;;;;;;;43.17;7.75;;;;;;;;;;5072128;28;20028;-65
2021/10/18 06:50:33;;;;;;;48.53;8.45;;;;;;;;;;5072524;28;20020;-65
2021/10/18 06:52:59;;;;;;;59.25;8.57;;;;;;;;;;5071781;28;20027;-66
2021/10/18 06:55:27;;;;;;;35.63;7.82;;;;;;;;;;5069533;28;20024;-66
2021/10/18 06:57:53;;;;;;;31.27;8.23;;;;;;;;;;5053876;28;20032;-66
2021/10/18 07:00:19;;;;;;;37.47;7.90;;;;;;;;;;5071967;28;20458;-64
2021/10/18 07:02:45;;;;;;;33.40;7.40;;;;;;;;;;5072614;28;20028;-66
2021/10/18 07:05:11;;;;;;;23.77;7.60;;;;;;;;;;5072694;28;20040;-64
2021/10/18 07:07:37;;;;;;;17.35;7.38;;;;;;;;;;5072130;28;20021;-70
2021/10/18 07:10:04;;;;;;;21.42;6.85;;;;;;;;;;5072429;28;20119;-63
2021/10/18 07:12:31;;;;;;;22.25;7.70;;;;;;;;;;5072188;28;20025;-65
2021/10/18 07:14:58;;;;;;;15.10;7.20;;;;;;;;;;5070708;28;20016;-66
2021/10/18 07:17:24;;;;;;;13.57;7.43;;;;;;;;;;5051844;28;20025;-64
2021/10/18 07:19:50;;;;;;;15.30;7.18;;;;;;;;;;5052145;28;20032;-64
2021/10/18 07:22:18;;;;;;;19.60;7.88;;;;;;;;;;5052229;28;20047;-63
2021/10/18 07:24:44;;;;;;;18.77;7.30;;;;;;;;;;5052336;28;20021;-64
2021/10/18 07:27:10;;;;;;;12.85;7.22;;;;;;;;;;5055924;28;20138;-63
2021/10/18 07:29:36;;;;;;;14.60;7.13;;;;;;;;;;5075708;28;20506;-63
2021/10/18 07:32:02;;;;;;;16.95;7.40;;;;;;;;;;5075906;28;20020;-64
2021/10/18 07:34:28;;;;;;;18.05;7.30;;;;;;;;;;5075691;28;20029;-63
2021/10/18 07:36:54;;;;;;;12.82;7.07;;;;;;;;;;5075708;28;20043;-63
2021/10/18 07:39:22;;;;;;;15.43;7.70;;;;;;;;;;5075399;28;20024;-64
2021/10/18 07:41:49;;;;;;;15.38;7.35;;;;;;;;;;5075531;28;20013;-64
2021/10/18 07:44:15;;;;;;;12.07;7.50;;;;;;;;;;5057492;28;20028;-65
2021/10/18 07:46:41;;;;;;;14.65;7.63;;;;;;;;;;5075654;28;20540;-63
2021/10/18 07:49:07;;;;;;;11.80;7.40;;;;;;;;;;5075281;28;20031;-64
2021/10/18 07:51:34;;;;;;;8.75;6.78;;;;;;;;;;5075079;28;20024;-63
2021/10/18 07:54:00;;;;;;;9.50;7.38;;;;;;;;;;5075386;28;20068;-62
2021/10/18 07:56:26;;;;;;;12.48;7.82;;;;;;;;;;5075529;28;20036;-62
2021/10/18 07:58:52;;;;;;;13.10;8.27;;;;;;;;;;5057365;28;20082;-63
2021/10/18 08:01:18;;;;;;;19.02;8.55;;;;;;;;;;5074834;28;20476;-62
2021/10/18 08:03:44;;;;;;;17.83;8.45;;;;;;;;;;5074840;28;20037;-62
2021/10/18 08:06:10;;;;;;;18.42;9.02;;;;;;;;;;5075311;28;20357;-62
2021/10/18 08:08:44;;;;;;;12.07;8.18;;;;;;;;;;5075135;28;20028;-62
2021/10/18 08:11:10;;;;;;;14.18;8.38;;;;;;;;;;5075472;28;20025;-62
2021/10/18 08:13:36;;;;;;;11.57;7.63;;;;;;;;;;5075145;28;20095;-61
2021/10/18 08:16:02;;;;;;;13.23;7.57;;;;;;;;;;5075029;28;20103;-62
2021/10/18 08:18:28;;;;;;;13.95;8.00;;;;;;;;;;5075053;28;20074;-62
2021/10/18 08:20:54;;;;;;;15.10;9.18;;;;;;;;;;5074961;28;20395;-62
2021/10/18 08:23:20;;;;;;;12.85;8.00;;;;;;;;;;5074663;28;20036;-62
2021/10/18 08:25:46;;;;;;;14.27;7.57;;;;;;;;;;5074637;28;20105;-62
2021/10/18 08:28:12;;;;;;;13.00;7.15;;;;;;;;;;5074732;28;20087;-62
2021/10/18 08:30:38;;;;;;;11.82;8.40;;;;;;;;;;5074548;28;20423;-62
2021/10/18 08:33:04;;;;;;;12.13;8.18;;;;;;;;;;5074565;28;20039;-62
2021/10/18 08:35:30;;;;;;;13.27;8.25;;;;;;;;;;5074516;28;20082;-62
2021/10/18 08:40:48;;;;;;;13.35;7.70;;;;;;;;;;5073765;28;20034;-63
2021/10/18 08:45:50;;;;;;;13.52;8.80;;;;;;;;;;5074641;28;20541;-63
2021/10/18 08:48:16;;;;;;;12.32;8.50;;;;;;;;;;5074146;28;20037;-62
2021/10/18 08:50:42;;;;;;;12.30;9.10;;;;;;;;;;5074566;28;20017;-63
2021/10/18 08:53:08;;;;;;;16.50;10.07;;;;;;;;;;5074301;28;20153;-63
2021/10/18 08:55:38;;;;;;;16.85;10.95;;;;;;;;;;5074039;28;20097;-63
2021/10/18 08:58:04;;;;;;;13.32;8.88;;;;;;;;;;5074302;28;20032;-62
2021/10/18 09:00:38;;;;;;;12.07;8.38;;;;;;;;;;5073548;28;20045;-63
2021/10/18 09:03:18;;;;;;;13.95;8.50;;;;;;;;;;5073864;28;20036;-63
2021/10/18 09:05:44;;;;;;;10.73;7.88;;;;;;;;;;5073711;28;20499;-63
2021/10/18 09:08:10;;;;;;;10.77;7.43;;;;;;;;;;5073877;28;20024;-62
2021/10/18 09:10:36;;;;;;;16.95;10.68;;;;;;;;;;5055783;28;20494;-63
2021/10/18 09:13:09;;;;;;;15.95;10.70;;;;;;;;;;5073797;28;20036;-63
2021/10/18 09:15:35;;;;;;;14.10;9.68;;;;;;;;;;5073847;28;20020;-62
2021/10/18 09:18:01;;;;;;;22.52;10.50;;;;;;;;;;5073639;28;20104;-62
2021/10/18 09:20:35;;;;;;;16.40;10.32;;;;;;;;;;5073710;28;20039;-62
2021/10/18 09:23:24;;;;;;;16.20;10.40;;;;;;;;;;5073837;28;20106;-62
2021/10/18 09:25:50;;;;;;;13.30;8.77;;;;;;;;;;5073640;28;20062;-62
2021/10/18 09:28:18;;;;;;;13.15;9.27;;;;;;;;;;5073868;28;20110;-63
2021/10/18 09:30:45;;;;;;;12.43;8.82;;;;;;;;;;5073366;28;20025;-63
2021/10/18 09:33:31;;;;;;;11.70;8.55;;;;;;;;;;5073631;28;20025;-62
2021/10/18 09:35:58;;;;;;;12.85;9.40;;;;;;;;;;5073315;28;20023;-62
2021/10/18 09:38:25;;;;;;;13.07;9.05;;;;;;;;;;5073192;28;20062;-62
2021/10/18 09:40:56;;;;;;;14.68;9.63;;;;;;;;;;5073331;28;20091;-62
2021/10/18 09:43:45;;;;;;;11.38;8.80;;;;;;;;;;5073068;28;20037;-63
2021/10/18 09:46:19;;;;;;;15.73;8.57;;;;;;;;;;5073219;28;20028;-64
2021/10/18 10:53:21;;;;;;;17.95;12.27;;;;;;;;;;5070274;28;20125;-62
2021/10/18 10:55:48;;;;;;;21.85;13.43;;;;;;;;;;5071908;28;20044;-63
2021/10/18 10:58:35;;;;;;;21.35;13.25;;;;;;;;;;5071826;28;20481;-63
2021/10/18 11:01:01;;;;;;;20.50;13.88;;;;;;;;;;5070396;28;20048;-63
2021/10/18 11:03:31;;;;;;;19.55;13.45;;;;;;;;;;5074909;28;20121;-63
2021/10/18 11:06:11;;;;;;;20.70;14.07;;;;;;;;;;5075667;28;20494;-62
2021/10/18 11:08:37;;;;;;;19.40;12.90;;;;;;;;;;5074450;28;20028;-62
2021/10/18 11:11:23;;;;;;;20.33;12.57;;;;;;;;;;5076287;28;20058;-63
2021/10/18 11:13:49;;;;;;;19.13;13.43;;;;;;;;;;5076295;28;20426;-62
2021/10/18 11:16:15;;;;;;;21.42;13.77;;;;;;;;;;5076493;28;20025;-62
2021/10/18 11:18:41;;;;;;;20.75;12.75;;;;;;;;;;5076093;28;20021;-62
2021/10/18 11:21:28;;;;;;;17.85;11.98;;;;;;;;;;5076155;28;20077;-63
2021/10/18 11:23:58;;;;;;;15.95;12.27;;;;;;;;;;5076380;28;20086;-62
2021/10/18 11:26:24;;;;;;;18.10;12.88;;;;;;;;;;5076056;28;20108;-63
2021/10/18 11:28:54;;;;;;;19.83;13.27;;;;;;;;;;5075763;28;20031;-62
2021/10/18 11:31:24;;;;;;;17.52;12.32;;;;;;;;;;5076078;28;20024;-63
2021/10/18 11:34:07;;;;;;;16.00;11.35;;;;;;;;;;5076052;28;20505;-62
2021/10/18 11:36:34;;;;;;;22.85;12.63;;;;;;;;;;5075783;28;20026;-62
2021/10/18 11:39:33;;;;;;;17.60;12.60;;;;;;;;;;5075783;28;20020;-63
2021/10/18 11:41:59;;;;;;;21.60;12.60;;;;;;;;;;5063730;28;20040;-62
2021/10/18 11:44:58;;;;;;;17.80;12.80;;;;;;;;;;5074400;28;20029;-63
2021/10/18 11:47:31;;;;;;;18.88;12.70;;;;;;;;;;5063540;28;20048;-62
2021/10/18 11:50:15;;;;;;;19.02;13.48;;;;;;;;;;5075641;28;20032;-62
2021/10/18 11:53:02;;;;;;;17.40;12.13;;;;;;;;;;5075840;28;20036;-62
2021/10/18 11:55:28;;;;;;;19.52;13.48;;;;;;;;;;5075491;28;20078;-62
2021/10/18 11:57:55;;;;;;;23.05;13.05;;;;;;;;;;5075516;28;20034;-62
2021/10/18 12:00:23;;;;;;;20.20;12.70;;;;;;;;;;5075286;28;20044;-63
2021/10/18 12:02:49;;;;;;;18.38;12.07;;;;;;;;;;5075255;28;20399;-62
2021/10/18 12:05:16;;;;;;;17.73;13.15;;;;;;;;;;5075465;28;20025;-63
2021/10/18 12:07:43;;;;;;;15.82;11.50;;;;;;;;;;5057310;28;20024;-62
2021/10/18 12:10:23;;;;;;;18.88;12.40;;;;;;;;;;5075352;28;20021;-62
2021/10/18 12:13:07;;;;;;;16.50;12.07;;;;;;;;;;5075086;28;20020;-62
2021/10/18 12:15:36;;;;;;;17.23;11.48;;;;;;;;;;5074161;28;20056;-64
2021/10/18 12:18:02;;;;;;;17.85;12.20;;;;;;;;;;5075157;28;20033;-63
2021/10/18 12:20:28;;;;;;;22.95;11.40;;;;;;;;;;5074966;28;20094;-62
2021/10/18 12:22:57;;;;;;;19.17;11.63;;;;;;;;;;5074519;28;20275;-62
2021/10/18 12:25:23;;;;;;;17.75;11.98;;;;;;;;;;5074911;28;20021;-62
2021/10/18 12:27:49;;;;;;;16.73;11.23;;;;;;;;;;5074712;28;20021;-62
2021/10/18 12:30:34;;;;;;;21.10;11.60;;;;;;;;;;5073387;28;20020;-63
2021/10/18 12:33:07;;;;;;;17.30;10.93;;;;;;;;;;5074771;28;20017;-63
2021/10/18 12:35:33;;;;;;;;;;;;;;;;;;5075122;28;20037;-62
2021/10/18 12:37:59;;;;;;;17.80;10.50;;;;;;;;;;5074549;28;20049;-62
2021/10/18 12:40:25;;;;;;;14.45;9.80;;;;;;;;;;5074366;28;20090;-62
2021/10/18 12:42:51;;;;;;;14.88;10.18;;;;;;;;;;5056211;28;20032;-63
2021/10/18 12:45:19;;;;;;;15.07;10.30;;;;;;;;;;5074340;28;20021;-63
2021/10/18 12:47:54;;;;;;;14.98;9.85;;;;;;;;;;5074332;28;20070;-62
2021/10/18 12:50:21;;;;;;;16.98;10.00;;;;;;;;;;5074342;28;20020;-63
2021/10/18 12:52:54;;;;;;;12.57;8.82;;;;;;;;;;5074238;28;20048;-63
2021/10/18 12:55:24;;;;;;;14.65;9.98;;;;;;;;;;5073740;28;20051;-63
2021/10/18 12:57:51;;;;;;;12.60;8.90;;;;;;;;;;5073895;28;20418;-63
2021/10/18 13:00:20;;;;;;;13.00;8.70;;;;;;;;;;5077312;28;20048;-62
2021/10/18 13:02:46;;;;;;;15.25;9.93;;;;;;;;;;5073893;28;20039;-63
2021/10/18 13:05:19;;;;;;;10.05;8.45;;;;;;;;;;5073928;28;20115;-62
2021/10/18 13:08:01;;;;;;;13.52;10.25;;;;;;;;;;5073710;28;20032;-63
2021/10/18 13:10:29;;;;;;;13.88;8.82;;;;;;;;;;5073967;28;20021;-63
2021/10/18 13:12:55;;;;;;;15.60;9.55;;;;;;;;;;5080060;28;20023;-63
2021/10/18 13:15:22;;;;;;;11.52;8.80;;;;;;;;;;5093909;28;20035;-63
2021/10/18 13:17:48;;;;;;;11.18;8.15;;;;;;;;;;5094070;28;20099;-63
2021/10/18 13:20:15;;;;;;;11.05;8.07;;;;;;;;;;5093986;28;20440;-62
2021/10/18 13:22:42;;;;;;;14.30;8.40;;;;;;;;;;5093761;28;20028;-62
2021/10/18 13:25:08;;;;;;;11.32;7.68;;;;;;;;;;5093463;28;20040;-63
2021/10/18 13:27:36;;;;;;;10.23;7.93;;;;;;;;;;5093697;28;20024;-63
2021/10/18 13:30:02;;;;;;;11.73;7.63;;;;;;;;;;5075484;28;20020;-62
2021/10/18 13:32:28;;;;;;;10.82;7.20;;;;;;;;;;5073491;28;20466;-62
2021/10/18 13:34:56;;;;;;;10.40;7.45;;;;;;;;;;5073506;28;20103;-63
2021/10/18 13:37:23;;;;;;;9.93;6.90;;;;;;;;;;5073126;28;20048;-63
2021/10/18 13:39:50;;;;;;;10.75;7.35;;;;;;;;;;5073313;28;20024;-63
2021/10/18 13:42:17;;;;;;;9.82;7.32;;;;;;;;;;5072990;28;20029;-62
2021/10/18 13:44:43;;;;;;;9.30;7.00;;;;;;;;;;5073222;28;20513;-63
2021/10/18 13:47:09;;;;;;;8.48;6.63;;;;;;;;;;5073616;28;20083;-63
2021/10/18 13:49:35;;;;;;;10.90;6.90;;;;;;;;;;5073502;28;20075;-63
2021/10/18 13:52:01;;;;;;;13.98;8.63;;;;;;;;;;5073308;28;20028;-62
2021/10/18 13:54:27;;;;;;;11.82;7.82;;;;;;;;;;5073039;28;20363;-63
2021/10/18 13:56:53;;;;;;;10.25;6.97;;;;;;;;;;5072986;28;20031;-62
2021/10/18 13:59:19;;;;;;;10.32;7.10;;;;;;;;;;5072899;28;20024;-63
2021/10/18 14:01:46;;;;;;;11.55;6.55;;;;;;;;;;5072989;28;20044;-63
2021/10/18 14:04:14;;;;;;;11.95;8.32;;;;;;;;;;5072753;28;20036;-62
2021/10/18 14:06:42;;;;;;;10.82;7.25;;;;;;;;;;5055340;28;20139;-63
2021/10/18 14:09:08;;;;;;;11.48;7.53;;;;;;;;;;5072865;28;20081;-62
2021/10/18 14:11:34;;;;;;;12.90;8.00;;;;;;;;;;5072647;28;20025;-63
2021/10/18 14:14:00;;;;;;;10.70;7.60;;;;;;;;;;5054854;28;20024;-63
2021/10/18 14:16:26;;;;;;;10.20;7.25;;;;;;;;;;5072952;28;20115;-63
2021/10/18 14:18:52;;;;;;;9.82;7.20;;;;;;;;;;5072718;28;20237;-63
2021/10/18 14:21:18;;;;;;;10.93;7.68;;;;;;;;;;5072655;28;20028;-63
2021/10/18 14:23:44;;;;;;;14.52;8.55;;;;;;;;;;5072403;28;20468;-63
2021/10/18 14:26:10;;;;;;;10.23;7.30;;;;;;;;;;5072674;28;20021;-62
2021/10/18 14:28:36;;;;;;;15.75;9.60;;;;;;;;;;5072851;28;20117;-63
2021/10/18 14:31:03;;;;;;;17.15;9.00;;;;;;;;;;5072571;28;20043;-62
2021/10/18 14:33:29;;;;;;;12.32;8.65;;;;;;;;;;5072507;28;20032;-63
2021/10/18 14:35:55;;;;;;;15.20;10.00;;;;;;;;;;5072671;28;20033;-63
2021/10/18 14:38:21;;;;;;;13.85;8.90;;;;;;;;;;5071851;28;20024;-62
2021/10/18 14:40:47;;;;;;;19.27;9.18;;;;;;;;;;5072687;28;20031;-62
2021/10/18 14:43:14;;;;;;;16.60;10.00;;;;;;;;;;5072312;28;20032;-63
2021/10/18 14:45:40;;;;;;;15.15;10.65;;;;;;;;;;5072337;28;20032;-63
2021/10/18 14:48:06;;;;;;;16.67;10.00;;;;;;;;;;5072646;28;20111;-63
2021/10/18 14:50:32;;;;;;;12.82;9.73;;;;;;;;;;5072586;28;20099;-63
2021/10/18 14:52:59;;;;;;;19.63;10.00;;;;;;;;;;5072326;28;20028;-63
2021/10/18 14:55:25;;;;;;;19.23;9.65;;;;;;;;;;5072534;28;20036;-63
2021/10/18 14:57:51;;;;;;;20.08;10.75;;;;;;;;;;5072130;28;20021;-62
2021/10/18 15:00:17;;;;;;;15.77;10.90;;;;;;;;;;5072178;28;20048;-63
2021/10/18 15:02:47;;;;;;;19.23;10.45;;;;;;;;;;5072503;28;20068;-63
2021/10/18 15:05:13;;;;;;;19.65;11.25;;;;;;;;;;5071906;28;20013;-63
2021/10/18 15:07:39;;;;;;;15.93;10.85;;;;;;;;;;5054250;28;20043;-63
2021/10/18 15:10:05;;;;;;;14.82;10.65;;;;;;;;;;5054198;28;20535;-63
2021/10/18 15:12:31;;;;;;;14.88;9.93;;;;;;;;;;5072045;28;20456;-62
2021/10/18 15:14:57;;;;;;;12.52;9.95;;;;;;;;;;5072254;28;20032;-62
2021/10/18 15:17:23;;;;;;;14.90;9.93;;;;;;;;;;5072418;28;20197;-62
2021/10/18 15:19:49;;;;;;;14.50;9.48;;;;;;;;;;5071921;28;20501;-63
2021/10/18 15:22:17;;;;;;;17.92;9.50;;;;;;;;;;5053984;28;20024;-62
2021/10/18 15:24:44;;;;;;;14.75;9.38;;;;;;;;;;5072074;28;20452;-63
2021/10/18 15:27:10;;;;;;;12.15;8.85;;;;;;;;;;5071728;28;20012;-63
2021/10/18 15:29:36;;;;;;;12.18;8.27;;;;;;;;;;5071732;28;20036;-65
2021/10/18 15:32:02;;;;;;;12.80;8.45;;;;;;;;;;5074441;28;20020;-66
2021/10/18 15:34:28;;;;;;;12.90;8.30;;;;;;;;;;5074202;28;20028;-64
2021/10/18 15:36:55;;;;;;;11.43;8.07;;;;;;;;;;5071437;28;20371;-63
2021/10/18 15:39:22;;;;;;;12.30;8.52;;;;;;;;;;5072042;28;20036;-63
2021/10/18 15:41:48;;;;;;;14.30;8.60;;;;;;;;;;5071821;28;20090;-65